createdAt,value
2019-03-08T00:00:08.130Z,97664.02
2019-03-08T00:02:36.613Z,97667.26
2019-03-08T00:05:06.048Z,97678.13
2019-03-08T00:07:34.788Z,97683.02
2019-03-08T00:10:03.266Z,97683.09
2019-03-08T00:12:31.725Z,97687.03
2019-03-08T00:15:00.351Z,97690.13
2019-03-08T00:17:28.759Z,97694.30
2019-03-08T00:19:57.302Z,97688.75
2019-03-08T00:22:26.056Z,97692.11
2019-03-08T00:24:54.894Z,97685.46
2019-03-08T00:27:23.368Z,97685.17
2019-03-08T00:29:51.913Z,97689.34
2019-03-08T00:32:20.386Z,97697.23
2019-03-08T00:34:48.844Z,97688.54
2019-03-08T00:37:17.562Z,97700.21
2019-03-08T00:39:46.057Z,97699.55
2019-03-08T00:42:14.514Z,97704.71
2019-03-08T00:44:42.988Z,97702.88
2019-03-08T00:47:11.550Z,97701.30
2019-03-08T00:49:40.033Z,97710.54
2019-03-08T00:52:08.870Z,97710.12
2019-03-08T00:54:37.343Z,97707.99
2019-03-08T00:57:05.873Z,97698.08
2019-03-08T00:59:34.368Z,97711.25
2019-03-08T01:02:02.932Z,97703.86
2019-03-08T01:04:31.414Z,97718.86
2019-03-08T01:07:00.184Z,97706.34
2019-03-08T01:09:28.667Z,97695.70
2019-03-08T01:11:57.825Z,97701.36
2019-03-08T01:14:26.324Z,97701.06
2019-03-08T01:16:54.843Z,97698.20
2019-03-08T01:19:23.303Z,97702.67
2019-03-08T01:21:52.159Z,97694.05
2019-03-08T01:24:20.619Z,97693.36
2019-03-08T01:26:49.105Z,97697.58
2019-03-08T01:29:17.634Z,97694.77
2019-03-08T01:31:46.114Z,97690.56
2019-03-08T01:34:14.672Z,97689.69
2019-03-08T01:36:43.477Z,97695.20
2019-03-08T01:39:12.036Z,97686.58
2019-03-08T01:41:40.570Z,97697.64
2019-03-08T01:44:09.210Z,97690.83
2019-03-08T01:46:37.713Z,97700.23
2019-03-08T01:49:06.170Z,97701.14
2019-03-08T01:51:34.903Z,97700.29
2019-03-08T01:54:03.392Z,97693.23
2019-03-08T01:56:31.862Z,97696.87
2019-03-08T01:59:00.354Z,97697.86
2019-03-08T02:01:28.881Z,97682.42
2019-03-08T02:03:57.344Z,97686.34
2019-03-08T02:06:26.008Z,97683.75
2019-03-08T02:08:54.460Z,97681.34
2019-03-08T02:11:23.024Z,97688.44
2019-03-08T02:13:51.491Z,97688.90
2019-03-08T02:16:19.972Z,97688.60
2019-03-08T02:18:48.428Z,97684.52
2019-03-08T02:21:17.176Z,97677.05
2019-03-08T02:23:45.628Z,97680.07
2019-03-08T02:26:14.085Z,97679.44
2019-03-08T02:28:42.589Z,97681.70
2019-03-08T02:31:11.044Z,97680.70
2019-03-08T02:33:39.586Z,97682.38
2019-03-08T02:36:08.589Z,97689.64
2019-03-08T02:38:37.125Z,97687.36
2019-03-08T02:41:05.766Z,97678.13
2019-03-08T02:43:34.258Z,97679.50
2019-03-08T02:46:02.818Z,97669.70
2019-03-08T02:48:31.272Z,97675.77
2019-03-08T02:51:00.018Z,97674.52
2019-03-08T02:53:28.473Z,97676.59
2019-03-08T02:55:56.971Z,97672.25
2019-03-08T02:58:25.435Z,97692.39
2019-03-08T03:00:53.971Z,97688.92
2019-03-08T03:03:22.498Z,97688.89
2019-03-08T03:05:51.232Z,97694.14
2019-03-08T03:08:19.764Z,97700.38
2019-03-08T03:10:48.300Z,97702.05
2019-03-08T03:13:16.788Z,97698.58
2019-03-08T03:15:45.264Z,97704.62
2019-03-08T03:18:13.818Z,97707.58
2019-03-08T03:20:42.302Z,97707.44
2019-03-08T03:23:10.786Z,97711.08
2019-03-08T03:25:39.244Z,97706.83
2019-03-08T03:28:07.735Z,97705.72
2019-03-08T03:30:36.202Z,97707.14
2019-03-08T03:33:04.692Z,97700.39
2019-03-08T03:35:33.342Z,97706.48
2019-03-08T03:38:01.906Z,97714.04
2019-03-08T03:40:30.395Z,97711.70
2019-03-08T03:42:58.854Z,97704.50
2019-03-08T03:45:27.324Z,97710.72
2019-03-08T03:47:55.792Z,97717.23
2019-03-08T03:50:24.434Z,97708.55
2019-03-08T03:52:52.922Z,97714.13
2019-03-08T03:55:21.399Z,97718.09
2019-03-08T03:57:49.878Z,97718.20
2019-03-08T04:00:20.526Z,97714.16
2019-03-08T04:02:49.048Z,97717.81
2019-03-08T04:05:17.852Z,97722.84
2019-03-08T04:07:46.319Z,97715.28
2019-03-08T04:10:16.010Z,97725.71
2019-03-08T04:12:44.502Z,97723.69
2019-03-08T04:15:17.951Z,97723.34
2019-03-08T04:17:46.709Z,97716.06
2019-03-08T04:20:16.724Z,97722.54
2019-03-08T04:22:45.377Z,97714.75
2019-03-08T04:25:14.704Z,97720.20
2019-03-08T04:27:43.237Z,97725.61
2019-03-08T04:30:16.575Z,97722.01
2019-03-08T04:32:45.366Z,97726.49
2019-03-08T04:35:13.831Z,97727.41
2019-03-08T04:37:42.595Z,97725.75
2019-03-08T04:40:12.405Z,97729.84
2019-03-08T04:42:40.941Z,97715.64
2019-03-08T04:45:15.092Z,97717.84
2019-03-08T04:47:43.770Z,97704.45
2019-03-08T04:50:16.540Z,97698.87
2019-03-08T04:52:45.182Z,97698.11
2019-03-08T04:55:18.385Z,97696.84
2019-03-08T04:57:47.385Z,97707.41
2019-03-08T05:00:18.123Z,97713.56
2019-03-08T05:02:46.687Z,97721.92
2019-03-08T05:05:15.326Z,97726.47
2019-03-08T05:07:43.874Z,97721.84
2019-03-08T05:10:17.482Z,97720.20
2019-03-08T05:12:46.578Z,97712.11
2019-03-08T05:15:16.104Z,97714.80
2019-03-08T05:17:44.721Z,97711.00
2019-03-08T05:20:13.967Z,97705.83
2019-03-08T05:22:42.429Z,97710.84
2019-03-08T05:25:13.313Z,97718.98
2019-03-08T05:27:42.049Z,97719.74
2019-03-08T05:30:15.324Z,97708.19
2019-03-08T05:32:43.811Z,97714.45
2019-03-08T05:35:13.516Z,97709.17
2019-03-08T05:37:42.293Z,97705.04
2019-03-08T05:40:20.186Z,97717.52
2019-03-08T05:42:47.626Z,97722.72
2019-03-08T05:45:16.439Z,97732.46
2019-03-08T05:47:44.971Z,97725.78
2019-03-08T05:50:13.703Z,97726.95
2019-03-08T05:52:42.715Z,97732.11
2019-03-08T05:55:12.179Z,97735.25
2019-03-08T05:57:40.797Z,97733.23
2019-03-08T06:00:12.911Z,97729.59
2019-03-08T06:02:41.419Z,97726.00
2019-03-08T06:05:10.126Z,97727.85
2019-03-08T06:07:38.794Z,97732.81
2019-03-08T06:10:33.547Z,97731.11
2019-03-08T06:13:03.373Z,97738.75
2019-03-08T06:15:31.906Z,97735.28
2019-03-08T06:18:00.726Z,97739.22
2019-03-08T06:20:29.195Z,97741.58
2019-03-08T06:22:57.750Z,97738.25
2019-03-08T06:25:26.570Z,97743.63
2019-03-08T06:27:55.047Z,97736.58
2019-03-08T06:30:23.504Z,97741.52
2019-03-08T06:32:52.415Z,97751.14
2019-03-08T06:35:21.023Z,97740.51
2019-03-08T06:37:49.514Z,97748.84
2019-03-08T06:40:18.145Z,97758.30
2019-03-08T06:42:46.648Z,97750.25
2019-03-08T06:45:18.794Z,97746.75
2019-03-08T06:47:47.449Z,97739.98
2019-03-08T06:50:16.399Z,97738.63
2019-03-08T06:52:45.006Z,97734.03
2019-03-08T06:55:15.692Z,97729.84
2019-03-08T06:57:44.219Z,97728.68
2019-03-08T07:00:34.059Z,97732.59
2019-03-08T07:03:03.200Z,97735.61
2019-03-08T07:05:31.683Z,97736.31
2019-03-08T07:08:00.158Z,97731.11
2019-03-08T07:10:28.654Z,97729.08
2019-03-08T07:13:03.122Z,97736.00
2019-03-08T07:15:27.614Z,97733.66
2019-03-08T07:17:56.081Z,97739.59
2019-03-08T07:20:26.210Z,97748.59
2019-03-08T07:22:56.340Z,97744.12
2019-03-08T07:25:38.470Z,97751.35
2019-03-08T07:28:10.851Z,97766.95
2019-03-08T07:30:40.953Z,97757.63
2019-03-08T07:33:13.480Z,97762.33
2019-03-08T07:35:58.958Z,97763.60
2019-03-08T07:38:38.270Z,97767.09
2019-03-08T07:41:08.375Z,97778.34
2019-03-08T07:43:40.964Z,97781.74
2019-03-08T07:46:29.251Z,97781.75
2019-03-08T07:49:14.311Z,97776.88
2019-03-08T07:51:44.457Z,97772.58
2019-03-08T07:54:30.955Z,97773.30
2019-03-08T07:57:17.632Z,97779.62
2019-03-08T07:59:56.869Z,97777.92
2019-03-08T08:02:29.498Z,97778.39
2019-03-08T08:05:02.152Z,97773.97
2019-03-08T08:07:37.798Z,97770.83
2019-03-08T08:10:10.831Z,97768.82
2019-03-08T08:12:57.211Z,97773.64
2019-03-08T08:15:27.396Z,97766.17
2019-03-08T08:18:03.263Z,97780.41
2019-03-08T08:20:33.399Z,97761.86
2019-03-08T08:23:09.316Z,97761.80
2019-03-08T08:25:41.845Z,97762.22
2019-03-08T08:28:21.330Z,97754.86
2019-03-08T08:31:03.289Z,97761.30
2019-03-08T08:33:36.118Z,97765.21
2019-03-08T08:36:12.126Z,97765.92
2019-03-08T08:38:54.198Z,97770.98
2019-03-08T08:41:33.590Z,97776.77
2019-03-08T08:44:19.132Z,97776.53
2019-03-08T08:46:51.986Z,97775.27
2019-03-08T08:49:27.878Z,97780.69
2019-03-08T08:51:58.019Z,97773.28
2019-03-08T08:54:44.574Z,97766.11
2019-03-08T08:57:32.713Z,97758.14
2019-03-08T09:00:05.423Z,97755.55
2019-03-08T09:02:35.555Z,97759.03
2019-03-08T09:05:06.569Z,97758.96
2019-03-08T09:07:39.659Z,97748.14
2019-03-08T09:10:14.645Z,97753.41
2019-03-08T09:12:47.575Z,97753.52
2019-03-08T09:15:20.925Z,97752.96
2019-03-08T09:18:02.845Z,97768.20
2019-03-08T09:20:44.999Z,97771.73
2019-03-08T09:23:15.421Z,97771.69
2019-03-08T09:25:45.524Z,97778.06
2019-03-08T09:28:15.655Z,97779.67
2019-03-08T09:30:52.786Z,97789.45
2019-03-08T09:33:22.967Z,97793.15
2019-03-08T09:35:55.921Z,97786.59
2019-03-08T09:38:28.760Z,97795.23
2019-03-08T09:41:14.985Z,97805.75
2019-03-08T09:43:54.056Z,97799.98
2019-03-08T09:46:36.984Z,97805.05
2019-03-08T09:49:25.314Z,97808.02
2019-03-08T09:52:04.589Z,97807.89
2019-03-08T09:54:40.396Z,97816.70
2019-03-08T09:57:22.742Z,97808.32
2019-03-08T10:00:08.860Z,97811.38
2019-03-08T10:02:54.001Z,97825.00
2019-03-08T10:05:24.153Z,97818.56
2019-03-08T10:08:10.490Z,97820.16
2019-03-08T10:10:55.681Z,97814.74
2019-03-08T10:13:42.088Z,97821.58
2019-03-08T10:16:12.201Z,97813.47
2019-03-08T10:18:42.324Z,97835.52
2019-03-08T10:21:28.615Z,97836.61
2019-03-08T10:24:02.917Z,97843.39
2019-03-08T10:26:33.179Z,97840.79
2019-03-08T10:29:03.289Z,97838.66
2019-03-08T10:31:36.143Z,97833.84
2019-03-08T10:34:11.979Z,97844.87
2019-03-08T10:36:42.348Z,97845.61
2019-03-08T10:39:18.396Z,97852.95
2019-03-08T10:41:48.529Z,97857.81
2019-03-08T10:44:21.631Z,97842.06
2019-03-08T10:47:06.801Z,97862.57
2019-03-08T10:49:55.302Z,97858.75
2019-03-08T10:52:42.957Z,97861.02
2019-03-08T10:55:14.645Z,97859.34
2019-03-08T10:57:44.765Z,97849.42
2019-03-08T11:00:16.216Z,97852.31
2019-03-08T11:02:51.829Z,97846.38
2019-03-08T11:05:21.969Z,97848.08
2019-03-08T11:07:55.121Z,97848.38
2019-03-08T11:10:25.247Z,97845.27
2019-03-08T11:13:11.515Z,97854.14
2019-03-08T11:15:43.682Z,97859.83
2019-03-08T11:18:25.812Z,97869.45
2019-03-08T11:21:08.535Z,97858.09
2019-03-08T11:23:38.641Z,97865.83
2019-03-08T11:26:17.566Z,97867.19
2019-03-08T11:28:53.414Z,97867.30
2019-03-08T11:31:26.242Z,97871.94
2019-03-08T11:34:02.387Z,97857.67
2019-03-08T11:36:35.239Z,97867.30
2019-03-08T11:39:06.868Z,97873.64
2019-03-08T11:41:37.006Z,97873.47
2019-03-08T11:44:07.181Z,97885.91
2019-03-08T11:46:43.257Z,97892.88
2019-03-08T11:49:19.461Z,97896.75
2019-03-08T11:51:59.217Z,97895.73
2019-03-08T11:54:40.743Z,97900.62
2019-03-08T11:57:09.426Z,97893.41
2019-03-08T11:59:39.546Z,97889.91
2019-03-08T12:02:25.933Z,97893.70
2019-03-08T12:05:01.514Z,97892.70
2019-03-08T12:07:31.846Z,97894.09
2019-03-08T12:10:03.035Z,97893.43
2019-03-08T12:12:33.140Z,97896.94
2019-03-08T12:15:15.423Z,97897.31
2019-03-08T12:17:51.272Z,97892.66
2019-03-08T12:20:27.691Z,97890.30
2019-03-08T12:23:00.496Z,97894.68
2019-03-08T12:25:30.703Z,97900.09
2019-03-08T12:28:19.105Z,97891.92
2019-03-08T12:31:05.091Z,97896.35
2019-03-08T12:33:38.129Z,97902.78
2019-03-08T12:36:13.749Z,97910.46
2019-03-08T12:38:43.864Z,97908.11
2019-03-08T12:41:23.360Z,97906.63
2019-03-08T12:43:56.737Z,97906.92
2019-03-08T12:46:32.957Z,97906.16
2019-03-08T12:49:11.821Z,97913.33
2019-03-08T12:51:58.305Z,97902.80
2019-03-08T12:54:43.250Z,97907.92
2019-03-08T12:57:31.664Z,97900.56
2019-03-08T13:00:07.744Z,97902.41
2019-03-08T13:02:37.870Z,97894.77
2019-03-08T13:05:24.481Z,97895.55
2019-03-08T13:08:10.769Z,97896.28
2019-03-08T13:10:39.312Z,97899.83
2019-03-08T13:13:07.863Z,97904.74
2019-03-08T13:15:36.352Z,97913.64
2019-03-08T13:18:04.907Z,97914.78
2019-03-08T13:20:33.388Z,97904.59
2019-03-08T13:23:02.168Z,97906.73
2019-03-08T13:25:30.681Z,97914.27
2019-03-08T13:27:59.202Z,97911.71
2019-03-08T13:30:27.755Z,97908.77
2019-03-08T13:32:56.236Z,97913.30
2019-03-08T13:35:24.716Z,97918.30
2019-03-08T13:37:53.470Z,97907.17
2019-03-08T13:40:21.936Z,97911.88
2019-03-08T13:42:50.441Z,97907.78
2019-03-08T13:45:21.427Z,97898.95
2019-03-08T13:47:49.962Z,97898.06
2019-03-08T13:50:18.529Z,97891.11
2019-03-08T13:52:47.269Z,97901.14
2019-03-08T13:55:16.915Z,97896.39
2019-03-08T13:57:45.452Z,97897.19
2019-03-08T14:00:18.892Z,97892.13
2019-03-08T14:02:47.435Z,97888.74
2019-03-08T14:05:16.354Z,97884.48
2019-03-08T14:07:44.891Z,97898.89
2019-03-08T14:10:16.438Z,97889.30
2019-03-08T14:12:46.417Z,97896.22
2019-03-08T14:15:16.145Z,97900.91
2019-03-08T14:17:44.789Z,97897.71
2019-03-08T14:20:16.486Z,97895.77
2019-03-08T14:22:45.185Z,97891.78
2019-03-08T14:25:13.787Z,97883.25
2019-03-08T14:27:44.030Z,97892.55
2019-03-08T14:30:24.487Z,97899.25
2019-03-08T14:32:52.950Z,97912.19
2019-03-08T14:35:21.860Z,97907.58
2019-03-08T14:37:52.414Z,97924.14
2019-03-08T14:40:34.010Z,97923.08
2019-03-08T14:43:13.149Z,97919.17
2019-03-08T14:45:47.174Z,97933.91
2019-03-08T14:48:15.645Z,97933.37
2019-03-08T14:50:46.903Z,97930.84
2019-03-08T14:53:15.740Z,97929.85
2019-03-08T14:55:47.194Z,97934.95
2019-03-08T14:58:15.659Z,97933.30
2019-03-08T15:00:45.771Z,97937.41
2019-03-08T15:03:14.322Z,97944.06
2019-03-08T15:05:43.199Z,97940.26
2019-03-08T15:08:13.600Z,97930.42
2019-03-08T15:10:43.586Z,97935.41
2019-03-08T15:13:13.352Z,97941.17
2019-03-08T15:15:41.851Z,97939.83
2019-03-08T15:18:10.460Z,97939.91
2019-03-08T15:20:38.933Z,97941.69
2019-03-08T15:23:07.505Z,97947.64
2019-03-08T15:25:36.004Z,97956.78
2019-03-08T15:28:04.758Z,97961.52
2019-03-08T15:30:33.327Z,97950.20
2019-03-08T15:33:02.101Z,97963.23
2019-03-08T15:35:30.589Z,97967.05
2019-03-08T15:37:59.134Z,97970.88
2019-03-08T15:40:33.203Z,97969.84
2019-03-08T15:42:58.889Z,97964.67
2019-03-08T15:45:27.641Z,97964.23
2019-03-08T15:47:56.295Z,97976.03
2019-03-08T15:50:24.772Z,97973.74
2019-03-08T15:52:53.326Z,97973.06
2019-03-08T15:55:21.924Z,97976.28
2019-03-08T15:57:50.471Z,97973.19
2019-03-08T16:00:22.842Z,97975.38
2019-03-08T16:02:51.647Z,97977.34
2019-03-08T16:05:23.816Z,97983.33
2019-03-08T16:07:51.304Z,97998.70
2019-03-08T16:10:21.321Z,97998.70
2019-03-08T16:12:50.037Z,98002.18
2019-03-08T16:15:18.663Z,97998.61
2019-03-08T16:17:47.209Z,98005.06
2019-03-08T16:20:20.260Z,98010.38
2019-03-08T16:22:48.798Z,98016.36
2019-03-08T16:25:18.063Z,98027.36
2019-03-08T16:27:48.630Z,98033.55
2019-03-08T16:30:22.915Z,98026.53
2019-03-08T16:32:55.975Z,98036.25
2019-03-08T16:35:24.292Z,98040.30
2019-03-08T16:38:10.121Z,98036.86
2019-03-08T16:40:40.090Z,98037.08
2019-03-08T16:43:09.971Z,98040.88
2019-03-08T16:45:40.012Z,98053.90
2019-03-08T16:48:09.912Z,98050.98
2019-03-08T16:50:39.779Z,98051.14
2019-03-08T16:53:26.170Z,98051.00
2019-03-08T16:55:55.126Z,98056.50
2019-03-08T16:58:40.607Z,98065.37
2019-03-08T17:01:10.731Z,98062.58
2019-03-08T17:03:41.132Z,98065.00
2019-03-08T17:06:11.282Z,98070.38
2019-03-08T17:08:47.354Z,98074.47
2019-03-08T17:11:17.493Z,98070.81
2019-03-08T17:13:53.674Z,98079.84
2019-03-08T17:16:38.716Z,98089.34
2019-03-08T17:19:11.886Z,98090.06
2019-03-08T17:21:40.677Z,98089.68
2019-03-08T17:24:19.875Z,98093.67
2019-03-08T17:26:52.702Z,98104.59
2019-03-08T17:29:28.863Z,98100.08
2019-03-08T17:32:17.302Z,98101.72
2019-03-08T17:34:47.455Z,98110.67
2019-03-08T17:37:26.783Z,98120.08
2019-03-08T17:39:57.277Z,98125.49
2019-03-08T17:42:30.115Z,98121.89
2019-03-08T17:45:18.493Z,98132.88
2019-03-08T17:47:57.772Z,98139.59
2019-03-08T17:50:27.890Z,98146.12
2019-03-08T17:53:14.316Z,98144.61
2019-03-08T17:56:03.077Z,98150.77
2019-03-08T17:58:49.662Z,98147.00
2019-03-08T18:01:38.158Z,98155.29
2019-03-08T18:04:08.343Z,98153.08
2019-03-08T18:06:38.448Z,98158.61
2019-03-08T18:09:27.156Z,98164.95
2019-03-08T18:12:03.117Z,98165.64
2019-03-08T18:14:39.144Z,98170.28
2019-03-08T18:17:13.202Z,98175.68
2019-03-08T18:19:43.503Z,98171.00
2019-03-08T18:22:29.599Z,98179.66
2019-03-08T18:25:11.784Z,98180.98
2019-03-08T18:27:42.283Z,98184.75
2019-03-08T18:30:17.596Z,98194.56
2019-03-08T18:32:57.002Z,98196.02
2019-03-08T18:35:44.273Z,98203.42
2019-03-08T18:38:17.392Z,98207.07
2019-03-08T18:40:47.512Z,98207.21
2019-03-08T18:43:20.716Z,98208.25
2019-03-08T18:45:50.858Z,98208.45
2019-03-08T18:48:26.722Z,98209.67
2019-03-08T18:50:56.860Z,98218.86
2019-03-08T18:53:39.156Z,98211.86
2019-03-08T18:56:09.263Z,98215.43
2019-03-08T18:58:48.608Z,98221.21
2019-03-08T19:01:27.286Z,98233.13
2019-03-08T19:03:57.396Z,98231.53
2019-03-08T19:06:27.510Z,98236.56
2019-03-08T19:09:13.975Z,98236.73
2019-03-08T19:11:44.080Z,98243.61
2019-03-08T19:14:32.594Z,98246.39
2019-03-08T19:17:02.730Z,98248.36
2019-03-08T19:19:33.186Z,98255.16
2019-03-08T19:22:06.430Z,98256.34
2019-03-08T19:24:45.496Z,98260.44
2019-03-08T19:27:32.358Z,98266.56
2019-03-08T19:30:02.584Z,98256.98
2019-03-08T19:32:38.463Z,98271.31
2019-03-08T19:35:11.714Z,98276.45
2019-03-08T19:37:54.168Z,98282.91
2019-03-08T19:40:27.969Z,98284.41
2019-03-08T19:42:58.214Z,98288.11
2019-03-08T19:45:28.325Z,98287.57
2019-03-08T19:48:10.796Z,98294.39
2019-03-08T19:50:57.558Z,98302.88
2019-03-08T19:53:44.511Z,98309.66
2019-03-08T19:56:17.049Z,98307.91
2019-03-08T19:58:56.012Z,98305.73
2019-03-08T20:01:42.334Z,98314.33
2019-03-08T20:04:18.811Z,98311.00
2019-03-08T20:06:51.655Z,98311.69
2019-03-08T20:09:27.786Z,98310.25
2019-03-08T20:12:03.635Z,98307.36
2019-03-08T20:14:33.755Z,98324.73
2019-03-08T20:17:15.657Z,98325.70
2019-03-08T20:20:02.280Z,98322.61
2019-03-08T20:22:35.337Z,98314.17
2019-03-08T20:25:14.661Z,98324.96
2019-03-08T20:27:53.351Z,98329.02
2019-03-08T20:30:28.960Z,98323.09
2019-03-08T20:32:59.075Z,98331.83
2019-03-08T20:35:29.198Z,98330.28
2019-03-08T20:37:59.312Z,98335.22
2019-03-08T20:40:34.978Z,98339.95
2019-03-08T20:43:08.111Z,98345.41
2019-03-08T20:45:50.302Z,98347.20
2019-03-08T20:48:18.766Z,98354.27
2019-03-08T20:50:47.267Z,98368.17
2019-03-08T20:53:15.741Z,98359.66
2019-03-08T20:55:44.499Z,98361.59
2019-03-08T20:58:12.995Z,98356.87
2019-03-08T21:00:41.749Z,98366.67
2019-03-08T21:03:10.237Z,98379.70
2019-03-08T21:05:38.703Z,98382.73
2019-03-08T21:08:07.274Z,98384.80
2019-03-08T21:10:35.749Z,98386.50
2019-03-08T21:13:07.030Z,98382.59
2019-03-08T21:15:35.500Z,98387.05
2019-03-08T21:18:05.538Z,98394.26
2019-03-08T21:20:34.075Z,98394.73
2019-03-08T21:23:04.901Z,98400.30
2019-03-08T21:25:33.368Z,98411.06
2019-03-08T21:28:02.167Z,98414.16
2019-03-08T21:30:30.635Z,98429.55
2019-03-08T21:32:59.183Z,98430.88
2019-03-08T21:35:28.014Z,98430.31
2019-03-08T21:37:56.475Z,98431.20
2019-03-08T21:40:25.024Z,98434.74
2019-03-08T21:42:53.505Z,98433.22
2019-03-08T21:45:21.977Z,98439.59
2019-03-08T21:47:50.445Z,98449.52
2019-03-08T21:50:19.151Z,98449.90
2019-03-08T21:52:47.642Z,98445.02
2019-03-08T21:55:16.144Z,98451.54
2019-03-08T21:57:44.632Z,98455.55
2019-03-08T22:00:18.751Z,98462.42
2019-03-08T22:02:47.233Z,98472.50
2019-03-08T22:05:17.348Z,98472.65
2019-03-08T22:07:45.815Z,98475.06
2019-03-08T22:10:34.606Z,98475.69
2019-03-08T22:13:03.142Z,98481.48
2019-03-08T22:15:31.674Z,98478.72
2019-03-08T22:18:00.162Z,98484.42
2019-03-08T22:20:28.637Z,98496.64
2019-03-08T22:22:57.106Z,98493.70
2019-03-08T22:25:25.858Z,98492.33
2019-03-08T22:27:54.401Z,98500.75
2019-03-08T22:30:23.045Z,98498.19
2019-03-08T22:32:51.567Z,98497.15
2019-03-08T22:35:20.112Z,98497.56
2019-03-08T22:37:48.668Z,98478.86
2019-03-08T22:40:17.236Z,98471.70
2019-03-08T22:42:45.815Z,98481.05
2019-03-08T22:45:14.352Z,98483.66
2019-03-08T22:47:42.853Z,98488.21
2019-03-08T22:50:15.295Z,98492.27
2019-03-08T22:52:43.907Z,98491.02
2019-03-08T22:55:14.759Z,98490.66
2019-03-08T22:57:43.309Z,98486.97
2019-03-08T23:00:31.421Z,98486.61
2019-03-08T23:02:59.965Z,98495.58
2019-03-08T23:05:28.470Z,98486.75
2019-03-08T23:07:57.016Z,98478.24
2019-03-08T23:10:26.477Z,98477.37
2019-03-08T23:12:54.948Z,98481.74
2019-03-08T23:15:23.452Z,98481.05
2019-03-08T23:17:51.919Z,98484.77
2019-03-08T23:20:20.419Z,98484.44
2019-03-08T23:22:48.911Z,98477.37
2019-03-08T23:25:19.435Z,98478.14
2019-03-08T23:27:58.523Z,98483.24
2019-03-08T23:30:27.465Z,98488.46
2019-03-08T23:32:55.965Z,98489.47
2019-03-08T23:35:24.438Z,98485.66
2019-03-08T23:37:52.946Z,98484.84
2019-03-08T23:40:21.409Z,98480.66
2019-03-08T23:42:49.916Z,98483.66
2019-03-08T23:45:18.398Z,98480.81
2019-03-08T23:47:46.886Z,98486.33
2019-03-08T23:50:15.369Z,98486.41
2019-03-08T23:52:43.872Z,98489.61
2019-03-08T23:55:12.356Z,98490.36
2019-03-08T23:57:40.824Z,98489.08
